createdAt,value
2018-07-04T00:01:26.244Z,4.63
2018-07-04T00:03:59.731Z,5.10
2018-07-04T00:06:33.326Z,9.13
2018-07-04T00:09:06.619Z,5.43
2018-07-04T00:11:40.049Z,6.17
2018-07-04T00:14:13.229Z,4.50
2018-07-04T00:16:46.531Z,9.30
2018-07-04T00:19:19.672Z,8.10
2018-07-04T00:21:52.786Z,7.53
2018-07-04T00:24:25.835Z,9.30
2018-07-04T00:26:58.883Z,7.30
2018-07-04T00:29:32.044Z,4.87
2018-07-04T00:32:04.992Z,6.70
2018-07-04T00:34:38.137Z,6.53
2018-07-04T00:37:11.193Z,11.27
2018-07-04T00:39:44.421Z,6.63
2018-07-04T00:42:17.513Z,7.00
2018-07-04T00:44:50.702Z,6.07
2018-07-04T00:47:23.882Z,6.47
2018-07-04T00:49:57.078Z,6.80
2018-07-04T00:52:30.013Z,7.57
2018-07-04T00:55:03.077Z,7.13
2018-07-04T00:57:36.197Z,8.50
2018-07-04T01:00:09.430Z,5.90
2018-07-04T01:02:42.535Z,9.77
2018-07-04T01:05:15.528Z,7.07
2018-07-04T01:07:48.616Z,7.37
2018-07-04T01:10:21.750Z,6.93
2018-07-04T01:12:55.052Z,10.40
2018-07-04T01:15:28.080Z,11.00
2018-07-04T01:18:01.175Z,10.63
2018-07-04T01:20:40.011Z,5.67
2018-07-04T01:23:13.104Z,5.90
2018-07-04T01:25:46.185Z,5.83
2018-07-04T01:28:19.375Z,5.67
2018-07-04T01:30:52.406Z,4.70
2018-07-04T01:33:25.413Z,10.50
2018-07-04T01:35:58.466Z,7.23
2018-07-04T01:38:31.546Z,6.40
2018-07-04T01:41:04.669Z,6.53
2018-07-04T01:43:37.726Z,6.53
2018-07-04T01:46:10.741Z,5.13
2018-07-04T01:48:44.909Z,4.90
2018-07-04T01:51:18.013Z,4.73
2018-07-04T01:53:51.214Z,8.90
2018-07-04T01:56:24.298Z,7.87
2018-07-04T01:58:57.302Z,11.70
2018-07-04T02:01:30.302Z,8.33
2018-07-04T02:04:03.338Z,5.97
2018-07-04T02:06:36.442Z,6.20
2018-07-04T02:09:09.522Z,9.43
2018-07-04T02:11:42.671Z,7.07
2018-07-04T02:14:15.862Z,9.80
2018-07-04T02:16:48.984Z,7.07
2018-07-04T02:19:22.108Z,10.27
2018-07-04T02:21:55.113Z,8.30
2018-07-04T02:24:28.152Z,8.70
2018-07-04T02:27:01.275Z,8.93
2018-07-04T02:29:34.401Z,8.00
2018-07-04T02:32:07.522Z,8.97
2018-07-04T02:34:40.570Z,10.63
2018-07-04T02:37:13.700Z,6.27
2018-07-04T02:39:46.831Z,7.90
2018-07-04T02:42:19.933Z,7.53
2018-07-04T02:44:53.119Z,7.57
2018-07-04T02:47:26.629Z,8.13
2018-07-04T02:49:59.549Z,8.50
2018-07-04T02:52:32.613Z,7.30
2018-07-04T02:55:05.635Z,11.97
2018-07-04T02:57:38.894Z,8.90
2018-07-04T03:00:12.001Z,6.70
2018-07-04T03:02:45.174Z,5.97
2018-07-04T03:05:18.272Z,6.50
2018-07-04T03:07:51.880Z,8.77
2018-07-04T03:10:24.817Z,7.20
2018-07-04T03:12:57.901Z,9.63
2018-07-04T03:15:31.064Z,6.70
2018-07-04T03:18:04.125Z,11.33
2018-07-04T03:20:37.323Z,9.27
2018-07-04T03:23:10.382Z,8.80
2018-07-04T03:25:43.429Z,11.03
2018-07-04T03:28:16.866Z,9.37
2018-07-04T03:30:49.994Z,17.47
2018-07-04T03:33:23.049Z,10.37
2018-07-04T03:35:56.225Z,10.10
2018-07-04T03:38:29.425Z,10.50
2018-07-04T03:41:02.587Z,10.30
2018-07-04T03:43:35.541Z,8.67
2018-07-04T03:46:08.573Z,8.83
2018-07-04T03:48:41.657Z,14.23
2018-07-04T03:51:14.786Z,8.20
2018-07-04T03:53:47.970Z,8.27
2018-07-04T03:56:20.970Z,13.63
2018-07-04T03:58:54.006Z,10.03
2018-07-04T04:01:27.412Z,9.93
2018-07-04T04:04:00.358Z,11.93
2018-07-04T04:06:33.465Z,9.63
2018-07-04T04:09:06.517Z,9.57
2018-07-04T04:11:39.606Z,9.60
2018-07-04T04:14:12.823Z,9.67
2018-07-04T04:16:45.986Z,8.93
2018-07-04T04:19:23.723Z,10.40
2018-07-04T04:21:56.893Z,7.80
2018-07-04T04:24:29.897Z,8.43
2018-07-04T04:27:03.162Z,9.97
2018-07-04T04:29:36.280Z,9.37
2018-07-04T04:32:09.410Z,14.13
2018-07-04T04:34:42.602Z,8.93
2018-07-04T04:37:15.788Z,10.13
2018-07-04T04:39:48.881Z,11.63
2018-07-04T04:42:22.058Z,14.20
2018-07-04T04:44:55.263Z,14.63
2018-07-04T04:47:28.433Z,9.67
2018-07-04T04:50:01.624Z,9.50
2018-07-04T04:52:34.734Z,18.37
2018-07-04T04:55:07.975Z,24.90
2018-07-04T04:57:41.083Z,10.83
2018-07-04T05:00:14.253Z,13.87
2018-07-04T05:02:47.458Z,14.23
2018-07-04T05:05:20.546Z,13.80
2018-07-04T05:07:53.619Z,11.93
2018-07-04T05:10:26.606Z,17.00
2018-07-04T05:12:59.653Z,12.10
2018-07-04T05:15:32.758Z,16.07
2018-07-04T05:18:05.864Z,16.47
2018-07-04T05:20:38.970Z,11.40
2018-07-04T05:23:12.086Z,18.13
2018-07-04T05:25:45.211Z,15.83
2018-07-04T05:28:18.342Z,12.73
2018-07-04T05:30:51.462Z,15.60
2018-07-04T05:33:24.689Z,17.60
2018-07-04T05:35:57.820Z,12.00
2018-07-04T05:38:30.906Z,16.90
2018-07-04T05:41:04.062Z,15.93
2018-07-04T05:43:37.113Z,20.40
2018-07-04T05:46:10.135Z,16.07
2018-07-04T05:48:43.306Z,27.03
2018-07-04T05:51:16.790Z,20.90
2018-07-04T05:53:49.937Z,14.30
2018-07-04T05:56:23.140Z,25.90
2018-07-04T05:58:56.268Z,13.80
2018-07-04T06:01:29.299Z,21.40
2018-07-04T06:04:02.431Z,19.10
2018-07-04T06:06:35.697Z,18.07
2018-07-04T06:09:08.832Z,21.60
2018-07-04T06:11:41.992Z,17.13
2018-07-04T06:14:14.957Z,17.60
2018-07-04T06:16:47.943Z,20.00
2018-07-04T06:19:21.100Z,16.70
2018-07-04T06:21:54.107Z,19.50
2018-07-04T06:24:27.266Z,14.60
2018-07-04T06:27:00.456Z,16.23
2018-07-04T06:29:33.598Z,11.87
2018-07-04T06:32:06.571Z,15.03
2018-07-04T06:34:39.613Z,16.20
2018-07-04T06:37:12.720Z,15.53
2018-07-04T06:39:39.586Z,13.00
2018-07-04T06:42:06.465Z,15.33
2018-07-04T06:44:33.414Z,16.40
2018-07-04T06:47:00.337Z,12.43
2018-07-04T06:49:27.213Z,19.40
2018-07-04T06:51:54.086Z,16.10
2018-07-04T06:54:21.079Z,12.27
2018-07-04T06:56:47.985Z,9.37
2018-07-04T06:59:15.183Z,13.90
2018-07-04T07:01:42.080Z,11.93
2018-07-04T07:04:15.234Z,12.67
2018-07-04T07:06:48.377Z,9.83
2018-07-04T07:09:21.682Z,8.77
2018-07-04T07:11:54.784Z,7.13
2018-07-04T07:14:27.928Z,11.40
2018-07-04T07:17:01.026Z,8.73
2018-07-04T07:19:34.190Z,8.60
2018-07-04T07:22:07.292Z,11.77
2018-07-04T07:24:40.441Z,8.07
2018-07-04T07:27:13.690Z,12.83
2018-07-04T07:29:46.803Z,9.63
2018-07-04T07:32:19.958Z,9.63
2018-07-04T07:34:53.137Z,6.27
2018-07-04T07:37:26.226Z,12.03
2018-07-04T07:39:59.445Z,8.83
2018-07-04T07:42:32.575Z,9.13
2018-07-04T07:45:05.789Z,9.97
2018-07-04T07:47:38.927Z,4.93
2018-07-04T07:50:12.111Z,8.97
2018-07-04T07:52:45.428Z,7.40
2018-07-04T07:55:18.616Z,6.70
2018-07-04T07:57:52.173Z,10.10
2018-07-04T08:00:25.132Z,6.07
2018-07-04T08:02:58.347Z,7.37
2018-07-04T08:05:31.517Z,5.37
2018-07-04T08:08:04.741Z,3.80
2018-07-04T08:10:37.920Z,7.77
2018-07-04T08:13:11.177Z,6.13
2018-07-04T08:15:44.250Z,4.67
2018-07-04T08:18:17.389Z,4.43
2018-07-04T08:20:50.557Z,4.77
2018-07-04T08:23:23.711Z,3.50
2018-07-04T08:25:56.660Z,5.47
2018-07-04T08:28:29.673Z,8.13
2018-07-04T08:31:02.879Z,4.40
2018-07-04T08:33:36.149Z,8.27
2018-07-04T08:36:09.275Z,6.57
2018-07-04T08:38:42.467Z,3.40
2018-07-04T08:41:15.737Z,4.90
2018-07-04T08:43:48.890Z,5.17
2018-07-04T08:46:22.086Z,6.33
2018-07-04T08:48:55.214Z,8.50
2018-07-04T08:51:28.658Z,4.20
2018-07-04T08:54:01.795Z,5.07
2018-07-04T08:56:34.944Z,6.47
2018-07-04T08:59:08.118Z,7.93
2018-07-04T09:01:41.242Z,7.70
2018-07-04T09:04:14.429Z,6.17
2018-07-04T09:06:47.525Z,4.60
2018-07-04T09:09:20.782Z,4.00
2018-07-04T09:11:53.950Z,5.27
2018-07-04T09:14:27.147Z,9.33
2018-07-04T09:17:00.448Z,3.60
2018-07-04T09:19:33.642Z,5.53
2018-07-04T09:22:06.830Z,4.43
2018-07-04T09:24:39.942Z,3.70
2018-07-04T09:27:12.838Z,6.53
2018-07-04T09:29:45.920Z,6.67
2018-07-04T09:32:19.051Z,3.60
2018-07-04T09:34:52.172Z,5.50
2018-07-04T09:37:25.247Z,6.43
2018-07-04T09:39:58.307Z,3.50
2018-07-04T09:42:31.391Z,4.47
2018-07-04T09:45:04.637Z,8.00
2018-07-04T09:47:37.788Z,5.00
2018-07-04T09:50:10.937Z,4.23
2018-07-04T09:52:43.964Z,5.77
2018-07-04T09:55:17.101Z,4.43
2018-07-04T09:57:50.289Z,3.73
2018-07-04T10:00:28.437Z,3.10
2018-07-04T10:03:02.661Z,6.27
2018-07-04T10:05:35.879Z,5.47
2018-07-04T10:08:09.101Z,5.60
2018-07-04T10:10:42.231Z,6.60
2018-07-04T10:13:15.381Z,5.33
2018-07-04T10:15:48.571Z,3.80
2018-07-04T10:18:21.968Z,4.43
2018-07-04T10:20:54.971Z,7.87
2018-07-04T10:23:28.161Z,6.73
2018-07-04T10:26:01.447Z,7.93
2018-07-04T10:28:34.623Z,7.30
2018-07-04T10:31:07.731Z,5.43
2018-07-04T10:33:40.831Z,2.83
2018-07-04T10:36:13.880Z,10.93
2018-07-04T10:38:47.062Z,7.07
2018-07-04T10:41:20.105Z,6.47
2018-07-04T10:43:53.286Z,2.93
2018-07-04T10:46:26.449Z,4.43
2018-07-04T10:48:59.763Z,4.30
2018-07-04T10:51:32.706Z,3.10
2018-07-04T10:54:05.828Z,5.63
2018-07-04T10:56:38.871Z,6.60
2018-07-04T10:59:12.011Z,8.30
2018-07-04T11:01:45.142Z,8.63
2018-07-04T11:04:18.216Z,5.37
2018-07-04T11:06:51.410Z,4.73
2018-07-04T11:09:24.388Z,6.63
2018-07-04T11:11:57.438Z,3.40
2018-07-04T11:14:30.676Z,6.00
2018-07-04T11:17:03.892Z,5.00
2018-07-04T11:19:37.020Z,5.77
2018-07-04T11:22:10.202Z,5.70
2018-07-04T11:24:43.131Z,5.13
2018-07-04T11:27:16.224Z,9.43
2018-07-04T11:29:49.331Z,5.87
2018-07-04T11:32:22.528Z,3.27
2018-07-04T11:34:55.924Z,4.57
2018-07-04T11:37:28.929Z,4.27
2018-07-04T11:40:02.142Z,3.80
2018-07-04T11:42:35.425Z,7.07
2018-07-04T11:45:08.476Z,2.83
2018-07-04T11:47:35.417Z,3.93
2018-07-04T11:50:02.366Z,8.43
2018-07-04T11:52:29.230Z,4.43
2018-07-04T11:54:56.169Z,2.10
2018-07-04T11:57:23.292Z,2.73
2018-07-04T11:59:50.218Z,7.53
2018-07-04T12:02:17.162Z,4.53
2018-07-04T12:04:50.202Z,3.80
2018-07-04T12:07:17.154Z,2.97
2018-07-04T12:09:44.078Z,3.20
2018-07-04T12:12:11.045Z,4.33
2018-07-04T12:14:37.998Z,8.60
2018-07-04T12:17:04.979Z,4.67
2018-07-04T12:19:31.908Z,3.53
2018-07-04T12:21:58.908Z,6.20
2018-07-04T12:24:25.808Z,3.93
2018-07-04T12:26:52.744Z,8.63
2018-07-04T12:29:19.631Z,3.80
2018-07-04T12:31:46.489Z,4.30
2018-07-04T12:34:13.384Z,6.23
2018-07-04T12:36:40.316Z,4.33
2018-07-04T12:39:07.262Z,3.63
2018-07-04T12:41:34.119Z,11.07
2018-07-04T12:44:01.121Z,4.33
2018-07-04T12:46:28.444Z,6.93
2018-07-04T12:49:01.125Z,4.73
2018-07-04T12:51:29.116Z,2.73
2018-07-04T12:54:00.552Z,5.10
2018-07-04T12:56:35.730Z,2.20
2018-07-04T12:59:08.798Z,5.37
2018-07-04T13:01:41.838Z,3.63
2018-07-04T13:04:15.072Z,3.70
2018-07-04T13:06:49.218Z,3.70
2018-07-04T13:09:22.365Z,2.70
2018-07-04T13:11:55.407Z,2.73
2018-07-04T13:14:28.374Z,1.90
2018-07-04T13:17:01.506Z,3.60
2018-07-04T13:19:34.755Z,4.10
2018-07-04T13:22:07.718Z,2.23
2018-07-04T13:24:40.984Z,3.93
2018-07-04T13:27:14.156Z,2.70
2018-07-04T13:29:47.333Z,2.03
2018-07-04T13:32:20.526Z,2.40
2018-07-04T13:34:54.092Z,1.67
2018-07-04T13:37:27.222Z,2.33
2018-07-04T13:40:00.437Z,2.37
2018-07-04T13:42:33.807Z,6.87
2018-07-04T13:45:06.814Z,5.03
2018-07-04T13:47:39.733Z,4.20
2018-07-04T13:50:12.854Z,2.60
2018-07-04T13:52:45.897Z,8.67
2018-07-04T13:55:19.017Z,1.90
2018-07-04T13:57:51.912Z,6.43
2018-07-04T14:00:24.895Z,3.17
2018-07-04T14:02:57.993Z,2.67
2018-07-04T14:05:31.069Z,3.03
2018-07-04T14:08:04.246Z,2.07
2018-07-04T14:10:37.487Z,2.20
2018-07-04T14:13:10.473Z,2.23
2018-07-04T14:15:43.676Z,2.13
2018-07-04T14:18:18.154Z,3.20
2018-07-04T14:20:51.324Z,2.60
2018-07-04T14:23:24.410Z,2.50
2018-07-04T14:25:57.407Z,11.53
2018-07-04T14:28:30.537Z,3.83
2018-07-04T14:31:04.092Z,5.17
2018-07-04T14:33:37.143Z,10.20
2018-07-04T14:36:10.248Z,3.13
2018-07-04T14:38:43.402Z,3.80
2018-07-04T14:41:16.874Z,4.97
2018-07-04T14:43:50.249Z,2.53
2018-07-04T14:46:23.245Z,4.27
2018-07-04T14:48:56.350Z,3.53
2018-07-04T14:51:29.480Z,3.73
2018-07-04T14:54:02.487Z,5.17
2018-07-04T14:56:35.684Z,3.50
2018-07-04T14:59:08.862Z,6.97
2018-07-04T15:01:41.894Z,4.00
2018-07-04T15:04:15.055Z,4.17
2018-07-04T15:06:48.217Z,2.50
2018-07-04T15:09:21.354Z,2.27
2018-07-04T15:11:54.533Z,4.53
2018-07-04T15:14:27.686Z,3.87
2018-07-04T15:17:00.866Z,2.57
2018-07-04T15:19:33.973Z,5.20
2018-07-04T15:22:07.143Z,2.30
2018-07-04T15:24:40.239Z,2.03
2018-07-04T15:27:13.289Z,5.87
2018-07-04T15:29:46.325Z,4.10
2018-07-04T15:32:19.530Z,3.50
2018-07-04T15:34:53.443Z,2.93
2018-07-04T15:37:26.466Z,2.80
2018-07-04T15:39:59.682Z,3.70
2018-07-04T15:42:32.797Z,2.27
2018-07-04T15:45:05.849Z,2.33
2018-07-04T15:47:38.914Z,7.90
2018-07-04T15:50:11.936Z,6.70
2018-07-04T15:52:45.173Z,6.93
2018-07-04T15:55:18.307Z,6.00
2018-07-04T15:57:51.622Z,5.13
2018-07-04T16:00:24.714Z,3.90
2018-07-04T16:02:57.860Z,4.20
2018-07-04T16:05:31.003Z,9.60
2018-07-04T16:08:04.051Z,4.10
2018-07-04T16:10:37.189Z,3.33
2018-07-04T16:13:10.319Z,5.37
2018-07-04T16:15:43.493Z,3.73
2018-07-04T16:18:16.723Z,2.40
2018-07-04T16:20:50.845Z,2.97
2018-07-04T16:23:23.923Z,7.37
2018-07-04T16:25:57.105Z,2.13
2018-07-04T16:28:30.339Z,3.80
2018-07-04T16:31:03.547Z,3.30
2018-07-04T16:33:36.528Z,3.23
2018-07-04T16:36:09.681Z,5.90
2018-07-04T16:38:42.835Z,3.87
2018-07-04T16:41:16.103Z,3.90
2018-07-04T16:43:49.301Z,3.00
2018-07-04T16:46:22.343Z,3.73
2018-07-04T16:48:55.518Z,5.70
2018-07-04T16:51:28.681Z,3.17
2018-07-04T16:54:01.892Z,2.40
2018-07-04T16:56:34.998Z,2.93
2018-07-04T16:59:08.091Z,2.80
2018-07-04T17:01:41.293Z,3.43
2018-07-04T17:04:14.493Z,5.13
2018-07-04T17:06:47.713Z,3.13
2018-07-04T17:09:20.842Z,3.50
2018-07-04T17:55:39.926Z,2.93
2018-07-04T17:58:12.997Z,7.73
2018-07-04T18:00:46.331Z,5.97
2018-07-04T18:03:19.345Z,5.67
2018-07-04T18:05:52.429Z,7.30
2018-07-04T18:08:25.562Z,7.30
2018-07-04T18:10:58.534Z,5.63
2018-07-04T18:13:31.523Z,4.83
2018-07-04T18:16:04.590Z,3.47
2018-07-04T18:18:37.763Z,6.90
2018-07-04T18:21:16.647Z,4.33
2018-07-04T18:23:49.878Z,4.60
2018-07-04T18:26:22.837Z,4.10
2018-07-04T18:28:57.584Z,3.00
2018-07-04T18:31:30.760Z,4.87
2018-07-04T18:34:03.791Z,4.50
2018-07-04T18:36:36.742Z,3.20
2018-07-04T18:39:09.728Z,5.73
2018-07-04T18:41:42.929Z,8.43
2018-07-04T18:44:15.840Z,11.37
2018-07-04T18:46:48.993Z,4.83
2018-07-04T18:49:22.021Z,3.07
2018-07-04T18:51:55.140Z,6.20
2018-07-04T18:54:28.225Z,3.43
2018-07-04T18:57:01.279Z,6.20
2018-07-04T18:59:34.514Z,5.40
2018-07-04T19:02:07.642Z,6.00
2018-07-04T19:04:40.787Z,3.33
2018-07-04T19:07:13.932Z,4.33
2018-07-04T19:09:47.133Z,3.90
2018-07-04T19:12:20.271Z,6.80
2018-07-04T19:14:53.312Z,4.30
2018-07-04T19:17:26.390Z,5.53
2018-07-04T19:19:59.677Z,2.63
2018-07-04T19:22:32.649Z,4.03
2018-07-04T19:25:05.790Z,8.20
2018-07-04T19:27:38.868Z,5.70
2018-07-04T19:30:12.045Z,10.80
2018-07-04T19:32:45.260Z,3.93
2018-07-04T19:35:18.396Z,8.63
2018-07-04T19:37:51.334Z,6.20
2018-07-04T19:40:24.498Z,6.77
2018-07-04T19:42:57.575Z,8.97
2018-07-04T19:45:30.737Z,8.23
2018-07-04T19:48:03.981Z,6.13
2018-07-04T19:50:36.918Z,3.23
2018-07-04T19:53:09.970Z,5.97
2018-07-04T19:55:42.995Z,5.10
2018-07-04T19:58:16.161Z,7.77
2018-07-04T20:00:49.243Z,8.77
2018-07-04T20:03:23.245Z,6.00
2018-07-04T20:05:56.285Z,6.53
2018-07-04T20:08:29.494Z,5.00
2018-07-04T20:11:02.610Z,3.37
2018-07-04T20:13:35.784Z,14.40
2018-07-04T20:16:08.896Z,5.20
2018-07-04T20:18:41.956Z,4.93
2018-07-04T20:21:15.125Z,12.63
2018-07-04T20:23:48.331Z,11.87
2018-07-04T20:26:21.423Z,4.80
2018-07-04T20:28:54.645Z,6.37
2018-07-04T20:31:27.749Z,4.50
2018-07-04T20:34:00.925Z,9.03
2018-07-04T20:36:34.075Z,4.20
2018-07-04T20:39:07.100Z,5.60
2018-07-04T20:41:40.013Z,4.10
2018-07-04T20:44:13.016Z,5.60
2018-07-04T20:46:46.109Z,3.63
2018-07-04T20:49:19.309Z,7.00
2018-07-04T20:51:52.535Z,5.23
2018-07-04T20:54:25.825Z,9.07
2018-07-04T20:56:58.718Z,5.10
2018-07-04T20:59:31.829Z,5.33
2018-07-04T21:02:05.007Z,5.70
2018-07-04T21:04:38.069Z,8.43
2018-07-04T21:07:11.291Z,10.50
2018-07-04T21:09:44.277Z,5.60
2018-07-04T21:12:17.266Z,6.90
2018-07-04T21:14:50.411Z,5.90
2018-07-04T21:17:23.391Z,5.33
2018-07-04T21:19:56.517Z,7.50
2018-07-04T21:22:29.769Z,3.90
2018-07-04T21:25:03.506Z,6.53
2018-07-04T21:27:36.626Z,3.80
2018-07-04T21:30:09.590Z,7.03
2018-07-04T21:32:42.872Z,6.07
2018-07-04T21:35:15.941Z,7.87
2018-07-04T21:37:49.074Z,8.00
2018-07-04T21:40:22.225Z,5.23
2018-07-04T21:42:55.345Z,5.53
2018-07-04T21:45:28.653Z,7.43
2018-07-04T21:48:01.691Z,6.17
2018-07-04T21:50:34.829Z,11.93
2018-07-04T21:53:07.833Z,5.20
2018-07-04T21:55:40.978Z,7.73
2018-07-04T21:58:13.962Z,9.30
2018-07-04T22:00:47.071Z,5.97
2018-07-04T22:03:20.230Z,6.10
2018-07-04T22:05:53.355Z,6.20
2018-07-04T22:08:26.622Z,6.03
2018-07-04T22:10:59.681Z,9.87
2018-07-04T22:13:32.736Z,5.67
2018-07-04T22:16:05.962Z,5.80
2018-07-04T22:18:39.260Z,6.70
2018-07-04T22:21:12.329Z,6.43
2018-07-04T22:23:45.372Z,5.63
2018-07-04T22:26:18.498Z,4.67
2018-07-04T22:28:51.573Z,6.30
2018-07-04T22:31:25.245Z,4.20
2018-07-04T22:33:58.172Z,3.97
2018-07-04T22:36:32.295Z,5.43
2018-07-04T22:39:06.997Z,13.80
2018-07-04T22:41:40.993Z,3.90
2018-07-04T22:44:14.222Z,9.27
2018-07-04T22:46:48.448Z,6.53
2018-07-04T22:49:21.392Z,8.83
2018-07-04T22:51:54.501Z,4.50
2018-07-04T22:54:27.575Z,9.70
2018-07-04T22:57:00.770Z,3.53
2018-07-04T22:59:33.717Z,12.53
2018-07-04T23:02:07.699Z,3.67
2018-07-04T23:04:40.993Z,5.63
2018-07-04T23:07:15.105Z,8.97
2018-07-04T23:09:48.251Z,6.57
2018-07-04T23:12:21.490Z,5.70
2018-07-04T23:14:55.175Z,6.60
2018-07-04T23:17:28.330Z,3.63
2018-07-04T23:20:01.510Z,4.37
2018-07-04T23:22:35.405Z,6.67
2018-07-04T23:25:08.783Z,4.60
2018-07-04T23:27:42.117Z,5.30
2018-07-04T23:30:15.691Z,9.03
2018-07-04T23:32:48.992Z,3.93
2018-07-04T23:35:22.365Z,9.70
2018-07-04T23:37:55.692Z,3.80
2018-07-04T23:40:28.877Z,7.83
2018-07-04T23:43:02.153Z,4.00
2018-07-04T23:45:35.497Z,7.33
2018-07-04T23:48:08.789Z,7.20
2018-07-04T23:50:42.154Z,6.03
2018-07-04T23:53:15.734Z,7.70
2018-07-04T23:55:49.455Z,3.50
2018-07-04T23:58:22.973Z,6.50
